Time;durP1;ratioP1;P1;durP2;ratioP2;P2;SDS_P1;SDS_P2;PMS_P1;PMS_P2;Temp;Humidity;BMP_temperature;BMP_pressure;BME280_temperature;BME280_humidity;BME280_pressure;Samples;Min_cycle;Max_cycle;Signal;HPM_P1;HPM_P2
2023/07/04 00:00:23;;;;;;;16.70;7.70;;;;;;;17.73;59.48;100275.66;106648;1257;98988;-79
2023/07/04 00:03:30;;;;;;;14.30;7.90;;;;;;;17.72;59.49;100278.31;106082;1253;96692;-78
2023/07/04 00:06:17;;;;;;;22.20;7.60;;;;;;;17.73;59.68;100275.28;106098;1254;97125;-78
2023/07/04 00:09:04;;;;;;;16.40;8.60;;;;;;;17.74;59.89;100275.31;105935;1256;100962;-77
2023/07/04 00:11:50;;;;;;;15.20;7.90;;;;;;;17.76;60.17;100275.14;106000;1253;100376;-79
2023/07/04 00:14:36;;;;;;;16.40;7.80;;;;;;;17.79;60.34;100275.19;105995;1254;97740;-78
2023/07/04 00:17:21;;;;;;;13.00;7.80;;;;;;;17.81;60.50;100278.86;105879;1259;97883;-78
2023/07/04 00:20:07;;;;;;;18.10;7.90;;;;;;;17.82;60.36;100278.34;105951;1257;96607;-78
2023/07/04 00:22:52;;;;;;;18.70;8.20;;;;;;;17.84;60.56;100278.95;105995;1257;99966;-78
2023/07/04 00:25:38;;;;;;;18.00;8.50;;;;;;;17.86;60.62;100276.20;105975;1256;99062;-78
2023/07/04 00:28:24;;;;;;;15.30;8.30;;;;;;;17.89;60.56;100279.52;105974;1257;97729;-78
2023/07/04 00:31:14;;;;;;;16.70;8.30;;;;;;;17.90;60.84;100281.00;106012;1253;96608;-78
2023/07/04 00:33:59;;;;;;;16.40;8.30;;;;;;;17.90;61.02;100282.29;105929;1253;97124;-78
2023/07/04 00:36:45;;;;;;;13.70;7.30;;;;;;;17.90;61.17;100283.91;105839;1257;101237;-78
2023/07/04 00:39:31;;;;;;;18.40;8.80;;;;;;;17.90;61.04;100283.91;105977;1253;99096;-78
2023/07/04 00:42:16;;;;;;;12.90;7.80;;;;;;;17.92;60.91;100288.88;106085;1253;98725;-78
2023/07/04 00:45:20;;;;;;;19.20;7.90;;;;;;;17.93;60.93;100291.61;106028;1257;98010;-79
2023/07/04 00:48:07;;;;;;;16.30;9.00;;;;;;;17.93;60.95;100290.03;105955;1253;97148;-78
2023/07/04 00:51:02;;;;;;;15.40;7.70;;;;;;;17.94;61.10;100288.38;105849;1253;101294;-79
2023/07/04 00:53:53;;;;;;;15.30;7.80;;;;;;;17.93;61.12;100288.05;105884;1257;100343;-78
2023/07/04 00:56:39;;;;;;;17.40;8.40;;;;;;;17.91;60.96;100289.35;106024;1252;97772;-78
2023/07/04 00:59:25;;;;;;;14.90;7.10;;;;;;;17.89;60.94;100286.60;105924;1258;96638;-79
2023/07/04 01:02:23;;;;;;;20.80;7.70;;;;;;;17.89;61.00;100284.11;106024;1254;96522;-77
2023/07/04 01:05:10;;;;;;;15.20;8.30;;;;;;;17.88;61.13;100288.27;106080;1258;99965;-79
2023/07/04 01:08:02;;;;;;;17.00;7.40;;;;;;;17.86;60.88;100292.63;106038;1257;99116;-78
2023/07/04 01:10:50;;;;;;;15.70;8.10;;;;;;;17.85;60.92;100286.14;106124;1256;98733;-78
2023/07/04 01:13:39;;;;;;;13.60;7.50;;;;;;;17.86;61.25;100283.46;106009;1257;96758;-80
2023/07/04 01:16:25;;;;;;;17.30;8.20;;;;;;;17.87;61.11;100287.92;106699;1257;96675;-80
2023/07/04 01:19:14;;;;;;;17.30;7.80;;;;;;;17.86;60.90;100289.58;106773;1255;100044;-80
2023/07/04 01:22:27;;;;;;;13.40;7.60;;;;;;;17.85;60.96;100287.00;107256;1251;99141;-80
2023/07/04 01:25:33;;;;;;;17.10;7.00;;;;;;;17.85;60.94;100288.86;107008;1251;97802;-80
2023/07/04 01:28:20;;;;;;;16.30;7.90;;;;;;;17.86;61.13;100290.12;106667;1255;96613;-77
2023/07/04 01:31:05;;;;;;;15.20;8.20;;;;;;;17.87;60.95;100289.61;105475;1253;97129;-77
2023/07/04 01:33:52;;;;;;;15.50;7.50;;;;;;;17.89;60.85;100290.57;105987;1257;100690;-79
2023/07/04 01:36:41;;;;;;;13.40;7.30;;;;;;;17.90;60.76;100284.83;106672;1256;100453;-78
2023/07/04 01:39:28;;;;;;;13.00;7.50;;;;;;;17.91;60.44;100284.10;106141;1253;97713;-79
2023/07/04 01:42:13;;;;;;;17.80;8.80;;;;;;;17.91;60.38;100287.09;107231;1254;96572;-79
2023/07/04 01:45:01;;;;;;;18.80;7.80;;;;;;;17.92;60.39;100288.56;106166;1257;97154;-79
2023/07/04 01:47:48;;;;;;;13.60;7.60;;;;;;;17.93;60.50;100288.86;106180;1256;99962;-79
2023/07/04 01:50:33;;;;;;;18.70;7.60;;;;;;;17.92;60.38;100289.11;106060;1256;99078;-78
2023/07/04 01:53:19;;;;;;;15.50;7.90;;;;;;;17.92;60.26;100293.00;105997;1252;98972;-78
2023/07/04 01:56:05;;;;;;;17.60;7.90;;;;;;;17.91;60.45;100292.71;106123;1253;96573;-78
2023/07/04 01:58:50;;;;;;;12.60;7.40;;;;;;;17.91;60.41;100293.64;106232;1257;96618;-80
2023/07/04 02:01:35;;;;;;;14.00;7.30;;;;;;;17.92;60.38;100293.92;107194;1253;101664;-80
2023/07/04 02:04:21;;;;;;;13.20;7.70;;;;;;;17.92;60.50;100292.40;106914;1257;100015;-77
2023/07/04 02:07:07;;;;;;;17.20;8.00;;;;;;;17.91;60.44;100295.91;105702;1253;99657;-78
2023/07/04 02:09:52;;;;;;;15.00;8.30;;;;;;;17.91;60.39;100297.53;106035;1257;96531;-77
2023/07/04 02:12:38;;;;;;;13.80;7.40;;;;;;;17.89;60.54;100300.11;106006;1253;96940;-79
2023/07/04 02:15:24;;;;;;;13.90;7.10;;;;;;;17.88;60.32;100302.73;106033;1251;99999;-79
2023/07/04 02:18:10;;;;;;;13.80;7.30;;;;;;;17.85;59.89;100298.66;105997;1253;99071;-78
2023/07/04 02:20:55;;;;;;;14.00;7.20;;;;;;;17.82;60.16;100297.14;105990;1258;98956;-79
2023/07/04 02:23:40;;;;;;;20.30;7.80;;;;;;;17.78;60.33;100296.09;105995;1255;97117;-77
2023/07/04 02:26:28;;;;;;;16.00;8.30;;;;;;;17.75;60.43;100298.83;105998;1253;97014;-78
2023/07/04 02:29:16;;;;;;;11.40;7.20;;;;;;;17.71;60.24;100295.78;106019;1256;101332;-78
2023/07/04 02:32:03;;;;;;;15.30;8.10;;;;;;;17.68;60.47;100298.81;106149;1257;100173;-79
2023/07/04 02:34:49;;;;;;;12.20;7.90;;;;;;;17.62;60.37;100298.20;106122;1253;97707;-79
2023/07/04 02:37:35;;;;;;;13.30;7.50;;;;;;;17.55;60.57;100294.91;106043;1253;96571;-77
2023/07/04 02:40:22;;;;;;;17.50;8.50;;;;;;;17.46;60.58;100294.96;106121;1253;97130;-78
2023/07/04 02:43:07;;;;;;;13.30;7.60;;;;;;;17.37;60.64;100295.15;105904;1253;101243;-79
2023/07/04 02:45:53;;;;;;;14.00;7.60;;;;;;;17.25;60.98;100295.92;106330;1257;100078;-79
2023/07/04 02:48:40;;;;;;;14.60;8.10;;;;;;;17.18;61.34;100303.72;106049;1257;97744;-78
2023/07/04 02:51:25;;;;;;;15.40;7.30;;;;;;;17.13;61.44;100309.79;105951;1258;96573;-78
2023/07/04 02:54:11;;;;;;;16.80;8.00;;;;;;;17.09;61.58;100307.52;105853;1257;97198;-78
2023/07/04 02:56:58;;;;;;;14.80;8.00;;;;;;;17.05;61.51;100307.38;106027;1252;100017;-78
2023/07/04 02:59:45;;;;;;;16.40;7.80;;;;;;;17.04;61.68;100305.57;105980;1253;99081;-78
2023/07/04 03:02:31;;;;;;;15.90;8.00;;;;;;;17.06;61.87;100308.48;105942;1254;98699;-77
2023/07/04 03:05:17;;;;;;;16.40;7.70;;;;;;;17.08;61.83;100313.40;107047;1256;96801;-81
2023/07/04 03:08:04;;;;;;;15.20;7.80;;;;;;;17.12;62.20;100313.92;106987;1257;96635;-78
2023/07/04 03:10:49;;;;;;;15.00;7.00;;;;;;;17.15;62.27;100312.91;106094;1253;99957;-79
2023/07/04 03:13:37;;;;;;;14.40;8.60;;;;;;;17.18;62.41;100315.18;106674;1259;99200;-81
2023/07/04 03:16:22;;;;;;;16.10;8.30;;;;;;;17.19;62.21;100316.14;107128;1256;98380;-79
2023/07/04 03:19:08;;;;;;;13.40;7.90;;;;;;;17.18;62.11;100317.14;106293;1256;96689;-77
2023/07/04 03:21:53;;;;;;;16.40;7.90;;;;;;;17.19;62.26;100318.63;106608;1253;96655;-79
2023/07/04 03:24:39;;;;;;;18.70;7.90;;;;;;;17.21;62.06;100318.66;106814;1253;100928;-78
2023/07/04 03:27:25;;;;;;;14.20;7.70;;;;;;;17.21;61.85;100319.77;106698;1256;99037;-79
2023/07/04 03:30:12;;;;;;;17.70;8.40;;;;;;;17.20;62.18;100318.72;106649;1257;97823;-78
2023/07/04 03:32:58;;;;;;;14.20;7.70;;;;;;;17.22;62.48;100318.14;106638;1258;96262;-78
2023/07/04 03:35:43;;;;;;;15.40;7.90;;;;;;;17.24;62.62;100316.47;106700;1253;97039;-79
2023/07/04 03:38:29;;;;;;;17.10;7.80;;;;;;;17.27;62.73;100318.97;106675;1256;100032;-79
2023/07/04 03:41:14;;;;;;;18.20;8.40;;;;;;;17.29;62.84;100319.46;106787;1257;100395;-79
2023/07/04 03:44:00;;;;;;;17.20;7.90;;;;;;;17.33;63.17;100322.14;106677;1253;97691;-79
2023/07/04 03:46:46;;;;;;;16.60;7.60;;;;;;;17.37;63.39;100317.94;106724;1257;96277;-79
2023/07/04 03:49:34;;;;;;;19.40;8.80;;;;;;;17.39;63.64;100317.19;107537;1254;95878;-78
2023/07/04 03:52:19;;;;;;;18.30;9.90;;;;;;;17.42;63.80;100315.84;106082;1253;101299;-79
2023/07/04 03:55:06;;;;;;;13.40;9.00;;;;;;;17.45;64.08;100314.12;106122;1256;99105;-79
2023/07/04 03:57:52;;;;;;;14.50;8.30;;;;;;;17.48;64.08;100314.44;106162;1255;98723;-79
2023/07/04 04:00:37;;;;;;;15.10;8.40;;;;;;;17.50;64.27;100317.34;106153;1257;96617;-79
2023/07/04 04:03:24;;;;;;;15.80;8.50;;;;;;;17.53;64.08;100320.45;106164;1259;96597;-79
2023/07/04 04:06:10;;;;;;;16.30;8.50;;;;;;;17.61;64.40;100320.83;106349;1253;100069;-79
2023/07/04 04:08:56;;;;;;;15.80;8.70;;;;;;;17.70;64.50;100322.16;106173;1261;100179;-79
2023/07/04 04:11:41;;;;;;;15.40;7.70;;;;;;;17.77;64.45;100321.54;106203;1259;97584;-78
2023/07/04 04:14:30;;;;;;;19.50;8.00;;;;;;;17.83;64.31;100324.68;106181;1253;96920;-78
2023/07/04 04:17:16;;;;;;;16.60;8.20;;;;;;;17.88;63.63;100323.60;106304;1256;97132;-78
2023/07/04 04:20:05;;;;;;;15.50;7.40;;;;;;;17.94;63.40;100328.61;106187;1257;101264;-79
2023/07/04 04:22:50;;;;;;;13.90;7.40;;;;;;;18.01;63.28;100334.20;107801;1253;99039;-78
2023/07/04 04:25:38;;;;;;;15.40;7.20;;;;;;;18.06;62.65;100335.30;106210;1259;97750;-78
2023/07/04 04:28:24;;;;;;;19.50;7.50;;;;;;;18.12;62.12;100334.21;106147;1253;97956;-79
2023/07/04 04:31:11;;;;;;;20.80;9.40;;;;;;;18.17;61.60;100340.06;106208;1253;96985;-78
2023/07/04 04:33:57;;;;;;;19.90;7.50;;;;;;;18.21;61.29;100339.27;106442;1253;101263;-79
2023/07/04 04:36:42;;;;;;;14.60;6.80;;;;;;;18.26;61.01;100341.26;106700;1252;99041;-79
2023/07/04 04:39:28;;;;;;;15.70;8.10;;;;;;;18.31;60.56;100342.45;107271;1253;98404;-80
2023/07/04 04:42:14;;;;;;;19.90;8.00;;;;;;;18.39;60.50;100348.50;106936;1258;95881;-79
2023/07/04 04:45:00;;;;;;;15.10;7.30;;;;;;;18.48;60.49;100349.33;106747;1253;96540;-79
2023/07/04 04:47:52;;;;;;;15.80;7.30;;;;;;;18.56;60.25;100351.77;106684;1253;101255;-79
2023/07/04 04:50:43;;;;;;;17.30;6.90;;;;;;;18.64;59.78;100355.48;106803;1253;100347;-80
2023/07/04 04:53:29;;;;;;;12.70;7.40;;;;;;;18.71;59.75;100356.25;106873;1256;98373;-79
2023/07/04 04:56:15;;;;;;;14.30;7.10;;;;;;;18.78;59.18;100357.15;106766;1255;95848;-79
2023/07/04 04:59:01;;;;;;;16.00;7.10;;;;;;;18.82;58.81;100355.41;106757;1251;97126;-80
2023/07/04 05:01:47;;;;;;;21.10;7.00;;;;;;;18.91;58.99;100356.70;106827;1253;108630;-79
2023/07/04 05:04:33;;;;;;;14.10;7.00;;;;;;;18.99;58.79;100360.67;106844;1255;99078;-79
2023/07/04 05:07:23;;;;;;;13.00;6.90;;;;;;;19.06;58.68;100363.67;106699;1253;97779;-79
2023/07/04 05:10:09;;;;;;;20.00;7.30;;;;;;;19.13;58.47;100363.40;106733;1253;97781;-79
2023/07/04 05:12:55;;;;;;;15.80;7.10;;;;;;;19.20;58.28;100364.83;106713;1257;96907;-79
2023/07/04 05:15:40;;;;;;;12.60;6.40;;;;;;;19.28;57.88;100367.70;106707;1256;99965;-79
2023/07/04 05:18:28;;;;;;;11.70;6.50;;;;;;;19.36;57.43;100368.06;106702;1256;101455;-79
2023/07/04 05:21:16;;;;;;;13.10;6.60;;;;;;;19.44;57.26;100366.45;106843;1256;97744;-80
2023/07/04 05:24:02;;;;;;;14.60;6.60;;;;;;;19.53;56.75;100371.08;106786;1258;96494;-79
2023/07/04 05:26:48;;;;;;;17.00;6.60;;;;;;;19.63;56.65;100374.42;106824;1253;97203;-79
2023/07/04 05:29:34;;;;;;;17.30;7.60;;;;;;;19.73;56.54;100375.31;107164;1256;100007;-79
2023/07/04 05:32:19;;;;;;;14.80;6.00;;;;;;;19.82;56.23;100371.00;107307;1253;100530;-79
2023/07/04 05:35:05;;;;;;;13.40;6.10;;;;;;;19.92;55.80;100377.10;107054;1258;98959;-79
2023/07/04 05:37:51;;;;;;;18.70;5.40;;;;;;;20.03;56.02;100377.62;107338;1253;96400;-80
2023/07/04 05:40:40;;;;;;;14.90;5.80;;;;;;;20.13;55.42;100381.38;106842;1257;97188;-79
2023/07/04 05:43:28;;;;;;;11.70;5.90;;;;;;;20.26;55.39;100381.83;107019;1253;99978;-80
2023/07/04 05:46:15;;;;;;;15.00;5.80;;;;;;;20.37;55.48;100380.86;107004;1253;100259;-79
2023/07/04 05:49:02;;;;;;;13.90;5.90;;;;;;;20.49;55.43;100380.45;107666;1253;98144;-79
2023/07/04 05:51:48;;;;;;;16.40;6.00;;;;;;;20.59;54.76;100379.90;106753;1253;96693;-79
2023/07/04 05:54:33;;;;;;;12.70;5.40;;;;;;;20.70;54.63;100376.08;106780;1253;96511;-79
2023/07/04 05:57:18;;;;;;;10.70;5.20;;;;;;;20.81;54.53;100374.05;106859;1253;100087;-79
2023/07/04 06:00:05;;;;;;;11.20;5.20;;;;;;;20.93;54.01;100376.27;106400;1251;99083;-78
2023/07/04 06:02:59;;;;;;;9.20;4.50;;;;;;;21.03;53.66;100369.91;106840;1259;98399;-86
2023/07/04 06:05:44;;;;;;;15.70;4.80;;;;;;;21.11;53.25;100365.08;106276;1253;97042;-82
2023/07/04 06:08:31;;;;;;;18.50;6.50;;;;;;;21.21;52.81;100370.27;106295;1254;96708;-82
2023/07/04 06:11:19;;;;;;;13.30;5.30;;;;;;;21.28;52.81;100370.86;106512;1252;100012;-84
2023/07/04 06:14:06;;;;;;;16.30;4.50;;;;;;;21.36;52.35;100369.00;106075;1259;100358;-84
2023/07/04 06:16:59;;;;;;;11.70;4.40;;;;;;;21.46;52.09;100369.06;106454;1257;98494;-84
2023/07/04 06:19:49;;;;;;;14.30;4.60;;;;;;;21.55;51.46;100371.19;106657;1253;96689;-86
2023/07/04 06:22:34;;;;;;;13.10;4.80;;;;;;;21.60;50.79;100367.84;106671;1259;96604;-78
2023/07/04 06:25:19;;;;;;;14.60;4.70;;;;;;;21.65;50.47;100365.70;106131;1258;100940;-77
2023/07/04 06:28:05;;;;;;;15.40;4.30;;;;;;;21.73;50.62;100368.29;106140;1257;100372;-81
2023/07/04 06:30:51;;;;;;;10.40;4.10;;;;;;;21.83;50.47;100371.80;106404;1256;97762;-84
2023/07/04 06:33:36;;;;;;;10.40;5.30;;;;;;;21.94;50.61;100373.39;106418;1253;96271;-80
2023/07/04 06:36:22;;;;;;;11.50;4.90;;;;;;;22.04;50.00;100378.98;106885;1257;96555;-81
2023/07/04 06:39:08;;;;;;;7.10;4.00;;;;;;;22.14;49.65;100376.36;106808;1256;101242;-81
2023/07/04 06:41:53;;;;;;;14.90;4.60;;;;;;;22.22;48.46;100377.74;107035;1253;99047;-81
2023/07/04 06:44:43;;;;;;;11.60;5.10;;;;;;;22.25;47.80;100380.59;106933;1256;98373;-81
2023/07/04 06:47:29;;;;;;;10.00;4.40;;;;;;;22.31;47.49;100381.91;106931;1254;97103;-81
2023/07/04 06:50:15;;;;;;;10.80;4.20;;;;;;;22.37;47.94;100383.84;106954;1259;97483;-80
2023/07/04 06:53:00;;;;;;;8.70;4.10;;;;;;;22.45;48.04;100383.96;107116;1257;101253;-80
2023/07/04 06:55:46;;;;;;;7.30;3.70;;;;;;;22.55;47.85;100385.46;106431;1257;99062;-81
2023/07/04 06:58:37;;;;;;;9.70;4.40;;;;;;;22.65;48.25;100390.30;106685;1257;99257;-80
2023/07/04 07:01:28;;;;;;;10.70;3.90;;;;;;;22.73;47.48;100389.66;107038;1254;96687;-81
2023/07/04 07:04:15;;;;;;;8.00;3.70;;;;;;;22.82;47.37;100390.34;106904;1251;96586;-80
2023/07/04 07:07:02;;;;;;;11.00;4.00;;;;;;;22.91;47.21;100387.99;106798;1252;100705;-87
2023/07/04 07:09:48;;;;;;;9.50;4.20;;;;;;;22.99;46.58;100388.27;106528;1254;99073;-82
2023/07/04 07:12:34;;;;;;;11.70;4.20;;;;;;;23.07;46.43;100384.34;107175;1251;98326;-82
2023/07/04 07:15:20;;;;;;;13.80;3.70;;;;;;;23.14;45.90;100384.11;106290;1257;96593;-86
2023/07/04 07:18:05;;;;;;;10.60;3.80;;;;;;;23.18;45.21;100383.29;106540;1253;97053;-84
2023/07/04 07:20:58;;;;;;;10.60;3.40;;;;;;;23.24;45.67;100383.06;106783;1253;99976;-79
2023/07/04 07:23:44;;;;;;;10.60;4.10;;;;;;;23.32;45.18;100382.25;106974;1253;100151;-79
2023/07/04 07:26:30;;;;;;;7.60;3.40;;;;;;;23.39;44.98;100379.36;106817;1254;98357;-79
2023/07/04 07:29:16;;;;;;;8.00;3.70;;;;;;;23.46;44.83;100380.55;106619;1259;96548;-78
2023/07/04 07:32:06;;;;;;;9.80;3.30;;;;;;;23.53;44.60;100384.36;106564;1253;97086;-79
2023/07/04 07:34:52;;;;;;;12.80;3.90;;;;;;;23.61;44.48;100384.67;106090;1257;101336;-78
2023/07/04 07:37:38;;;;;;;12.10;4.60;;;;;;;23.68;44.30;100381.20;105883;1257;99761;-77
2023/07/04 07:40:24;;;;;;;12.60;5.10;;;;;;;23.73;43.18;100380.59;105641;1259;97705;-78
2023/07/04 07:43:09;;;;;;;8.50;5.10;;;;;;;23.77;42.55;100375.27;105751;1254;96540;-77
2023/07/04 07:45:55;;;;;;;13.60;5.40;;;;;;;23.81;42.01;100373.23;105856;1256;97090;-78
2023/07/04 07:48:41;;;;;;;11.40;5.10;;;;;;;23.87;42.26;100372.55;105944;1256;99908;-78
2023/07/04 07:51:28;;;;;;;9.70;4.80;;;;;;;23.95;42.07;100373.40;105962;1259;100432;-78
2023/07/04 07:54:14;;;;;;;9.80;5.20;;;;;;;23.99;41.56;100373.16;106164;1257;98376;-78
2023/07/04 07:57:01;;;;;;;7.30;4.70;;;;;;;24.03;41.54;100368.56;106445;1257;96624;-78
2023/07/04 07:59:48;;;;;;;11.40;4.80;;;;;;;24.10;41.49;100367.16;106648;1252;96499;-79
2023/07/04 08:02:34;;;;;;;10.60;6.20;;;;;;;24.17;41.00;100367.03;106399;1257;100052;-78
2023/07/04 08:05:19;;;;;;;13.70;7.20;;;;;;;24.18;39.54;100364.63;106250;1254;107660;-78
2023/07/04 08:08:06;;;;;;;13.90;6.70;;;;;;;24.18;39.98;100359.36;106032;1256;97700;-78
2023/07/04 08:10:51;;;;;;;10.50;6.40;;;;;;;24.24;39.97;100357.80;106012;1257;97469;-78
2023/07/04 08:13:37;;;;;;;9.50;5.50;;;;;;;24.30;40.20;100358.64;106012;1257;96479;-78
2023/07/04 08:16:27;;;;;;;11.70;5.50;;;;;;;24.37;40.18;100361.17;106057;1253;100007;-79
2023/07/04 08:19:14;;;;;;;9.10;4.90;;;;;;;24.43;40.22;100361.20;106286;1256;99065;-79
2023/07/04 08:21:59;;;;;;;11.40;5.30;;;;;;;24.49;40.43;100358.86;106522;1253;99004;-79
2023/07/04 08:24:45;;;;;;;8.90;5.10;;;;;;;24.56;40.43;100356.89;106522;1251;96588;-79
2023/07/04 08:27:30;;;;;;;8.60;4.80;;;;;;;24.60;39.67;100354.89;106474;1254;96371;-80
2023/07/04 08:30:16;;;;;;;9.80;4.70;;;;;;;24.61;39.85;100354.28;106436;1257;100006;-79
2023/07/04 08:33:02;;;;;;;9.30;4.10;;;;;;;24.68;40.02;100357.89;106627;1257;99692;-79
2023/07/04 08:35:59;;;;;;;13.30;4.80;;;;;;;24.77;40.14;100354.40;106728;1256;97729;-79
2023/07/04 08:38:50;;;;;;;10.20;3.90;;;;;;;24.87;40.34;100357.34;106718;1257;96652;-79
2023/07/04 08:41:42;;;;;;;13.70;3.90;;;;;;;24.94;40.24;100357.99;106846;1256;97040;-79
2023/07/04 08:44:35;;;;;;;8.10;3.60;;;;;;;25.03;40.26;100356.67;107029;1254;101818;-79
2023/07/04 08:47:25;;;;;;;10.40;4.40;;;;;;;25.10;39.99;100353.69;106759;1254;100309;-79
2023/07/04 08:50:19;;;;;;;9.30;4.00;;;;;;;25.15;40.23;100351.29;106748;1257;97671;-79
2023/07/04 08:53:12;;;;;;;6.90;3.30;;;;;;;25.22;39.99;100352.31;106831;1253;96704;-79
2023/07/04 08:56:07;;;;;;;9.70;3.90;;;;;;;25.26;39.17;100349.59;106725;1257;98486;-79
2023/07/04 08:59:08;;;;;;;6.80;3.40;;;;;;;25.27;38.76;100346.29;106709;1256;101243;-79
2023/07/04 09:02:15;;;;;;;6.90;3.20;;;;;;;25.33;38.88;100337.73;106799;1257;99211;-80
2023/07/04 09:05:01;;;;;;;11.40;4.00;;;;;;;25.37;38.32;100333.63;107065;1257;97681;-79
2023/07/04 09:07:59;;;;;;;10.80;3.50;;;;;;;25.42;38.94;100335.47;107109;1254;96575;-79
2023/07/04 09:10:49;;;;;;;7.50;3.50;;;;;;;25.52;38.67;100338.22;107001;1256;95689;-82
2023/07/04 09:13:41;;;;;;;9.80;3.50;;;;;;;25.59;38.65;100337.42;106746;1257;99978;-79
2023/07/04 09:16:38;;;;;;;9.30;3.50;;;;;;;25.65;38.60;100337.25;106430;1253;99235;-80
2023/07/04 09:19:23;;;;;;;8.70;3.40;;;;;;;25.73;38.68;100328.75;106389;1257;99155;-83
2023/07/04 09:22:09;;;;;;;11.30;4.00;;;;;;;25.80;38.15;100329.64;106642;1252;96599;-82
2023/07/04 09:24:54;;;;;;;6.30;3.00;;;;;;;25.81;37.82;100331.95;106699;1254;97011;-80
2023/07/04 09:27:40;;;;;;;6.70;3.70;;;;;;;25.83;37.61;100325.43;106886;1254;99997;-83
2023/07/04 09:30:26;;;;;;;11.80;3.50;;;;;;;25.89;38.08;100326.84;106525;1257;99430;-82
2023/07/04 09:33:14;;;;;;;6.70;3.10;;;;;;;25.95;38.08;100321.23;106586;1257;97762;-87
2023/07/04 09:36:01;;;;;;;10.70;3.60;;;;;;;26.01;37.59;100319.33;106510;1254;96504;-80
2023/07/04 09:39:04;;;;;;;10.60;3.70;;;;;;;26.05;37.09;100320.64;106202;1251;97124;-80
2023/07/04 09:41:59;;;;;;;10.50;3.40;;;;;;;26.07;36.92;100321.88;106788;1254;99977;-80
2023/07/04 09:44:46;;;;;;;9.30;3.80;;;;;;;26.12;36.83;100326.56;106435;1257;99042;-81
2023/07/04 09:47:33;;;;;;;9.90;3.60;;;;;;;26.10;36.44;100324.39;107169;1254;97705;-81
2023/07/04 09:50:38;;;;;;;7.20;3.30;;;;;;;26.13;36.92;100327.15;107251;1254;96615;-81
2023/07/04 09:53:23;;;;;;;7.10;3.20;;;;;;;26.22;36.73;100321.82;106824;1254;97029;-83
2023/07/04 09:56:09;;;;;;;6.30;3.30;;;;;;;26.25;36.79;100314.96;106916;1254;99966;-81
2023/07/04 09:59:16;;;;;;;6.10;3.20;;;;;;;26.32;36.75;100317.38;106877;1259;99074;-79
2023/07/04 10:02:13;;;;;;;7.10;3.20;;;;;;;26.41;36.96;100312.23;106553;1257;97715;-78
2023/07/04 10:05:00;;;;;;;6.50;3.40;;;;;;;26.48;36.92;100311.16;106563;1256;96575;-79
2023/07/04 10:07:59;;;;;;;9.60;3.30;;;;;;;26.53;37.18;100314.79;106181;1253;96550;-82
2023/07/04 10:10:57;;;;;;;8.00;4.10;;;;;;;26.60;36.92;100317.59;106642;1254;99978;-77
2023/07/04 10:13:58;;;;;;;8.70;4.00;;;;;;;26.63;36.30;100313.65;105598;1257;99898;-77
2023/07/04 10:16:50;;;;;;;6.30;3.30;;;;;;;26.61;36.52;100317.73;105529;1254;98263;-77
2023/07/04 10:19:42;;;;;;;7.90;3.70;;;;;;;26.67;36.40;100317.38;106262;1254;97284;-79
2023/07/04 10:22:34;;;;;;;9.90;4.30;;;;;;;26.69;35.84;100316.08;106946;1257;96540;-79
2023/07/04 10:25:22;;;;;;;7.20;3.40;;;;;;;26.73;36.12;100314.62;106175;1255;100964;-77
2023/07/04 10:28:13;;;;;;;10.00;3.70;;;;;;;26.79;35.91;100312.71;107211;1254;100350;-79
2023/07/04 10:31:05;;;;;;;7.80;4.00;;;;;;;26.86;36.03;100313.04;107385;1257;97734;-82
2023/07/04 10:34:00;;;;;;;6.40;3.60;;;;;;;26.93;35.34;100313.30;106985;1257;97369;-82
2023/07/04 10:36:49;;;;;;;9.50;3.50;;;;;;;26.96;35.73;100313.29;107594;1256;96560;-86
2023/07/04 10:39:38;;;;;;;11.00;3.50;;;;;;;27.01;35.54;100316.73;106512;1260;99975;-79
2023/07/04 10:42:31;;;;;;;11.00;4.20;;;;;;;27.06;35.52;100314.71;106721;1254;100496;-80
2023/07/04 10:45:19;;;;;;;9.50;4.30;;;;;;;27.12;34.86;100317.30;106869;1257;98529;-84
2023/07/04 10:48:11;;;;;;;7.00;4.10;;;;;;;27.07;34.31;100318.59;107033;1257;96597;-82
2023/07/04 10:51:03;;;;;;;9.70;5.10;;;;;;;27.02;33.89;100326.59;106483;1260;97900;-80
2023/07/04 10:53:49;;;;;;;9.80;4.40;;;;;;;27.03;34.03;100315.20;106371;1253;101386;-78
2023/07/04 10:56:36;;;;;;;6.90;4.00;;;;;;;26.99;34.13;100319.63;106369;1257;99077;-80
2023/07/04 10:59:31;;;;;;;11.60;4.90;;;;;;;26.97;34.60;100320.92;107077;1254;99542;-80
2023/07/04 11:02:27;;;;;;;6.60;4.90;;;;;;;27.02;33.87;100324.01;106487;1254;96630;-79
2023/07/04 11:05:29;;;;;;;8.70;4.80;;;;;;;27.03;33.56;100326.75;106288;1257;96829;-82
2023/07/04 11:08:21;;;;;;;9.40;4.50;;;;;;;27.06;33.49;100318.29;106371;1255;99992;-85
2023/07/04 11:11:11;;;;;;;8.20;4.70;;;;;;;27.14;34.18;100311.44;106770;1260;99094;-84
2023/07/04 11:14:02;;;;;;;9.90;4.50;;;;;;;27.21;33.57;100307.94;106191;1253;98560;-80
2023/07/04 11:16:50;;;;;;;11.70;5.00;;;;;;;27.24;33.59;100304.83;106695;1254;96517;-77
2023/07/04 11:20:11;;;;;;;9.30;5.20;;;;;;;27.31;33.81;100292.56;106087;1257;98195;-88
2023/07/04 11:23:00;;;;;;;11.70;5.90;;;;;;;27.40;33.44;100300.91;106065;1260;100040;-85
2023/07/04 11:25:46;;;;;;;12.10;5.30;;;;;;;27.45;33.11;100307.61;106300;1257;99983;-84
2023/07/04 11:28:34;;;;;;;7.50;4.30;;;;;;;27.50;33.43;100302.84;106355;1254;97854;-83
2023/07/04 11:31:27;;;;;;;10.20;4.80;;;;;;;27.60;33.58;100304.31;106273;1254;97879;-83
2023/07/04 11:34:13;;;;;;;11.50;4.70;;;;;;;27.70;33.06;100300.29;106308;1257;98289;-87
2023/07/04 11:36:59;;;;;;;10.50;4.90;;;;;;;27.76;32.92;100301.06;106355;1254;99996;-86
2023/07/04 11:39:49;;;;;;;11.20;4.80;;;;;;;27.80;32.42;100297.77;106243;1257;99780;-83
2023/07/04 11:42:45;;;;;;;9.60;5.50;;;;;;;27.81;32.36;100298.23;106819;1254;97770;-84
2023/07/04 11:45:32;;;;;;;7.50;4.80;;;;;;;27.87;32.82;100298.89;106338;1260;96969;-85
2023/07/04 11:48:18;;;;;;;9.00;5.40;;;;;;;27.92;32.59;100287.88;106563;1254;96974;-87
2023/07/04 11:51:06;;;;;;;9.30;5.30;;;;;;;27.97;32.53;100297.14;105864;1254;101145;-83
2023/07/04 11:53:58;;;;;;;10.50;5.40;;;;;;;28.01;32.69;100294.27;106321;1253;99104;-81
2023/07/04 11:56:43;;;;;;;12.50;6.10;;;;;;;28.02;32.33;100290.55;106647;1258;98970;-82
2023/07/04 11:59:42;;;;;;;8.30;5.90;;;;;;;27.99;31.93;100286.87;106455;1254;96737;-79
2023/07/04 12:02:30;;;;;;;12.30;5.80;;;;;;;28.02;32.11;100284.33;106674;1254;97386;-81
2023/07/04 12:05:33;;;;;;;12.70;6.40;;;;;;;28.09;32.03;100290.08;106111;1254;101089;-84
2023/07/04 12:08:24;;;;;;;10.00;6.50;;;;;;;28.13;31.70;100290.14;106457;1254;99171;-82
2023/07/04 12:11:26;;;;;;;10.30;6.10;;;;;;;28.16;31.85;100284.04;106671;1255;98406;-81
2023/07/04 12:14:15;;;;;;;9.50;5.80;;;;;;;28.26;32.52;100283.16;106460;1254;96850;-85
2023/07/04 12:17:01;;;;;;;10.90;6.30;;;;;;;28.34;32.08;100279.79;106158;1254;96747;-83
2023/07/04 12:19:55;;;;;;;10.10;7.00;;;;;;;28.37;31.57;100289.47;106290;1254;101644;-85
2023/07/04 12:22:44;;;;;;;11.40;6.70;;;;;;;28.40;31.58;100283.27;106326;1257;99128;-79
2023/07/04 12:25:37;;;;;;;11.30;7.20;;;;;;;28.45;30.94;100281.34;107043;1253;97756;-81
2023/07/04 12:28:27;;;;;;;10.70;6.40;;;;;;;28.48;30.70;100284.02;106717;1257;96507;-80
2023/07/04 12:31:17;;;;;;;10.50;6.50;;;;;;;28.44;30.35;100278.55;107414;1257;95857;-82
2023/07/04 12:34:03;;;;;;;10.00;6.50;;;;;;;28.41;30.61;100280.88;106462;1258;100101;-83
2023/07/04 12:36:48;;;;;;;9.90;7.30;;;;;;;28.47;30.72;100283.09;107017;1257;99392;-80
2023/07/04 12:39:43;;;;;;;8.90;6.80;;;;;;;28.51;30.70;100282.52;106794;1252;97724;-80
2023/07/04 12:42:31;;;;;;;11.00;6.70;;;;;;;28.53;30.62;100283.52;106716;1252;96400;-80
2023/07/04 12:45:22;;;;;;;10.40;6.90;;;;;;;28.55;31.15;100276.75;106622;1254;97059;-81